Time;durP1;ratioP1;P1;durP2;ratioP2;P2;SDS_P1;SDS_P2;PMS_P1;PMS_P2;Temp;Humidity;BMP_temperature;BMP_pressure;BME280_temperature;BME280_humidity;BME280_pressure;Samples;Min_cycle;Max_cycle;Signal;HPM_P1;HPM_P2
2022/06/16 00:00:14;;;;;;;999.75;931.45;;;19.70;99.90;;;;;;4986299;28;20271;-75
2022/06/16 00:02:48;;;;;;;980.30;914.15;;;19.70;99.90;;;;;;5008393;28;20228;-75
2022/06/16 00:05:19;;;;;;;975.58;909.25;;;19.50;99.90;;;;;;5014407;28;20217;-75
2022/06/16 00:07:45;;;;;;;957.15;893.42;;;19.50;99.90;;;;;;5007422;28;20171;-75
2022/06/16 00:10:13;;;;;;;921.35;861.13;;;19.50;99.90;;;;;;5014686;28;20187;-75
2022/06/16 00:12:39;;;;;;;897.00;839.75;;;19.30;99.90;;;;;;5011614;28;20188;-74
2022/06/16 00:15:10;;;;;;;827.33;775.05;;;19.20;99.90;;;;;;5001167;28;20181;-74
2022/06/16 00:17:35;;;;;;;796.95;748.55;;;19.20;99.90;;;;;;5008818;28;20186;-74
2022/06/16 00:20:04;;;;;;;810.90;760.33;;;19.20;99.90;;;;;;4996841;28;20610;-75
2022/06/16 00:22:30;;;;;;;755.00;709.38;;;19.30;99.90;;;;;;4993056;28;20274;-74
2022/06/16 00:24:56;;;;;;;786.65;738.85;;;19.20;99.90;;;;;;5010061;28;20201;-74
2022/06/16 00:27:22;;;;;;;766.40;721.00;;;19.10;99.90;;;;;;4996352;28;20708;-74
2022/06/16 00:29:47;;;;;;;722.35;680.67;;;19.10;99.90;;;;;;5014109;28;20270;-74
2022/06/16 00:32:13;;;;;;;762.20;716.78;;;19.00;99.90;;;;;;4981595;28;20187;-74
2022/06/16 00:34:38;;;;;;;692.00;651.95;;;19.00;99.90;;;;;;4988900;28;20287;-74
2022/06/16 00:37:04;;;;;;;636.58;601.72;;;18.90;99.90;;;;;;4996057;28;20217;-74
2022/06/16 00:39:30;;;;;;;708.15;667.50;;;18.90;99.90;;;;;;4977603;28;20247;-74
2022/06/16 00:41:56;;;;;;;757.03;711.33;;;18.80;99.90;;;;;;5009048;28;20198;-74
2022/06/16 00:44:31;;;;;;;647.05;611.22;;;18.80;99.90;;;;;;4985056;28;20187;-74
2022/06/16 00:46:57;;;;;;;540.60;513.67;;;18.80;99.90;;;;;;5014422;28;20187;-74
2022/06/16 00:49:24;;;;;;;660.63;623.05;;;18.80;99.90;;;;;;4985531;28;20206;-74
2022/06/16 00:51:56;;;;;;;578.08;546.83;;;18.80;99.90;;;;;;5015828;28;20195;-74
2022/06/16 00:54:31;;;;;;;575.22;543.30;;;18.80;99.90;;;;;;5012743;28;20187;-74
2022/06/16 00:57:03;;;;;;;501.10;476.85;;;18.70;99.90;;;;;;5009766;28;20179;-74
2022/06/16 00:59:29;;;;;;;608.90;574.58;;;18.60;99.90;;;;;;5013252;28;20251;-74
2022/06/16 01:01:55;;;;;;;578.33;546.45;;;18.60;99.90;;;;;;4984588;28;20271;-74
2022/06/16 01:07:09;;;;;;;553.05;523.97;;;18.60;99.90;;;;;;5010567;28;20207;-74
2022/06/16 01:09:36;;;;;;;390.33;371.85;;;18.60;99.90;;;;;;5023288;28;20187;-74
2022/06/16 01:15:49;;;;;;;198.20;190.07;;;18.60;99.90;;;;;;4904457;29;20306;-74
2022/06/16 01:18:15;;;;;;;231.05;221.27;;;18.50;99.90;;;;;;4987927;28;20215;-74
2022/06/16 01:20:48;;;;;;;272.95;260.60;;;18.50;99.90;;;;;;5011778;28;20183;-74
2022/06/16 01:23:36;;;;;;;223.30;213.70;;;18.60;99.90;;;;;;4994953;28;20184;-74
2022/06/16 01:26:16;;;;;;;256.70;245.13;;;18.60;99.90;;;;;;5006185;28;20298;-74
2022/06/16 01:29:15;;;;;;;187.18;179.63;;;18.60;99.90;;;;;;5009246;28;20194;-74
2022/06/16 01:31:52;;;;;;;258.58;247.05;;;18.50;99.90;;;;;;4995490;28;20195;-74
2022/06/16 01:34:26;;;;;;;236.82;226.02;;;18.40;99.90;;;;;;5010699;28;20190;-74
2022/06/16 01:37:00;;;;;;;208.82;200.60;;;18.20;99.90;;;;;;5007535;28;20183;-74
2022/06/16 01:39:41;;;;;;;215.32;206.27;;;18.20;99.90;;;;;;4995779;28;20559;-74
2022/06/16 01:42:14;;;;;;;246.40;235.38;;;18.20;99.90;;;;;;4996327;28;20262;-74
2022/06/16 01:44:46;;;;;;;211.18;202.07;;;18.20;99.90;;;;;;5009906;28;20186;-73
2022/06/16 01:47:16;;;;;;;164.57;158.02;;;18.10;99.90;;;;;;5016377;28;20181;-74
2022/06/16 01:49:48;;;;;;;211.77;202.77;;;18.00;99.90;;;;;;5029173;28;20183;-73
2022/06/16 01:52:55;;;;;;;204.13;195.50;;;18.10;99.90;;;;;;5022229;28;20293;-73
2022/06/16 01:55:29;;;;;;;208.02;198.85;;;18.10;99.90;;;;;;4955852;28;20222;-73
2022/06/16 01:58:04;;;;;;;256.30;245.02;;;18.10;99.90;;;;;;5016565;28;20191;-74
2022/06/16 02:00:32;;;;;;;249.98;239.15;;;18.10;99.90;;;;;;5006740;28;20182;-73
2022/06/16 02:03:08;;;;;;;281.20;268.17;;;18.00;99.90;;;;;;4995620;28;20633;-73
2022/06/16 02:05:34;;;;;;;241.18;230.48;;;17.90;99.90;;;;;;5018616;28;20187;-73
2022/06/16 02:08:03;;;;;;;236.30;226.02;;;17.80;99.90;;;;;;4996718;28;20202;-74
2022/06/16 02:10:42;;;;;;;186.68;179.13;;;17.80;99.90;;;;;;5025163;28;20187;-73
2022/06/16 02:13:12;;;;;;;215.93;207.02;;;17.80;99.90;;;;;;5010987;28;20175;-73
2022/06/16 02:15:58;;;;;;;204.45;195.90;;;17.80;99.90;;;;;;4995543;28;20266;-73
2022/06/16 02:18:28;;;;;;;223.18;213.77;;;17.80;99.90;;;;;;5005830;28;20215;-73
2022/06/16 02:20:57;;;;;;;213.68;204.80;;;17.60;99.90;;;;;;4995298;28;20191;-73
2022/06/16 02:23:22;;;;;;;229.88;220.35;;;17.50;99.90;;;;;;5003152;28;20270;-73
2022/06/16 02:25:52;;;;;;;225.75;216.13;;;17.50;99.90;;;;;;4995707;28;20302;-73
2022/06/16 02:28:18;;;;;;;210.40;201.75;;;17.50;99.90;;;;;;4991133;28;20609;-73
2022/06/16 02:31:04;;;;;;;211.52;202.95;;;17.50;99.90;;;;;;4975566;28;20187;-73
2022/06/16 02:34:22;;;;;;;173.02;166.07;;;17.50;99.90;;;;;;4982926;28;20184;-73
2022/06/16 02:36:59;;;;;;;179.05;171.88;;;17.50;99.90;;;;;;4985715;28;20188;-74
2022/06/16 02:39:59;;;;;;;224.60;215.18;;;17.50;99.90;;;;;;5010326;28;20655;-73
2022/06/16 02:42:55;;;;;;;179.10;172.27;;;17.40;99.90;;;;;;4976418;28;20628;-72
2022/06/16 02:45:47;;;;;;;207.65;199.18;;;17.50;99.90;;;;;;5000860;28;20179;-74
2022/06/16 02:48:20;;;;;;;197.13;189.30;;;17.50;99.90;;;;;;5006579;28;20202;-73
2022/06/16 02:50:57;;;;;;;198.23;190.13;;;17.40;99.90;;;;;;5007157;28;20210;-73
2022/06/16 02:56:24;;;;;;;197.00;189.30;;;17.20;99.90;;;;;;5012385;28;20275;-73
2022/06/16 02:58:51;;;;;;;220.95;211.93;;;17.20;99.90;;;;;;5013357;28;20759;-74
2022/06/16 03:01:19;;;;;;;201.45;193.52;;;17.20;99.90;;;;;;5030485;28;20224;-74
2022/06/16 03:04:11;;;;;;;202.35;193.48;;;17.20;99.90;;;;;;5021590;28;20188;-73
2022/06/16 03:06:37;;;;;;;201.25;193.05;;;17.20;99.90;;;;;;5023341;28;20238;-73
2022/06/16 03:09:04;;;;;;;209.05;200.55;;;17.30;99.90;;;;;;5028859;28;20190;-73
2022/06/16 03:11:32;;;;;;;230.60;220.70;;;17.20;99.90;;;;;;4992764;28;20183;-73
2022/06/16 03:13:58;;;;;;;204.63;195.95;;;17.10;99.90;;;;;;5011734;28;20602;-73
2022/06/16 03:16:24;;;;;;;218.27;209.32;;;17.10;99.90;;;;;;5011863;28;20271;-73
2022/06/16 03:18:50;;;;;;;214.48;205.48;;;17.10;99.90;;;;;;5009638;28;20307;-73
2022/06/16 03:21:16;;;;;;;235.98;225.55;;;17.00;99.90;;;;;;4989118;28;20680;-73
2022/06/16 03:23:41;;;;;;;260.38;248.05;;;17.00;99.90;;;;;;5006225;28;20191;-74
2022/06/16 03:26:07;;;;;;;220.10;211.25;;;17.00;99.90;;;;;;5002994;28;20190;-73
2022/06/16 03:28:33;;;;;;;219.75;210.82;;;16.90;99.90;;;;;;4993483;28;20195;-73
2022/06/16 03:30:58;;;;;;;276.83;264.80;;;16.90;99.90;;;;;;4976974;28;20199;-73
2022/06/16 03:33:24;;;;;;;205.70;197.10;;;16.80;99.90;;;;;;4990493;28;20644;-72
2022/06/16 03:35:50;;;;;;;226.60;217.13;;;16.90;99.90;;;;;;4995604;28;20252;-73
2022/06/16 03:38:31;;;;;;;209.43;200.60;;;16.90;99.90;;;;;;4987221;28;20246;-73
2022/06/16 03:40:56;;;;;;;219.68;210.68;;;16.90;99.90;;;;;;4977180;28;20188;-73
2022/06/16 03:43:22;;;;;;;267.50;255.65;;;16.80;99.90;;;;;;4966284;28;20218;-73
2022/06/16 03:45:48;;;;;;;221.05;211.75;;;16.70;99.90;;;;;;5001874;28;20214;-74
2022/06/16 03:48:14;;;;;;;334.15;318.88;;;16.80;99.90;;;;;;5013958;28;20199;-73
2022/06/16 03:50:40;;;;;;;317.98;304.25;;;16.90;99.90;;;;;;5009048;28;20205;-74
2022/06/16 03:53:06;;;;;;;314.15;299.95;;;16.90;99.90;;;;;;5014327;28;20207;-73
2022/06/16 03:55:31;;;;;;;308.25;294.02;;;16.80;99.90;;;;;;5018657;28;20241;-73
2022/06/16 03:57:58;;;;;;;330.48;314.95;;;16.80;99.90;;;;;;5020341;28;20218;-73
2022/06/16 04:00:24;;;;;;;371.30;353.08;;;16.80;99.90;;;;;;5000042;28;20187;-73
2022/06/16 04:05:40;;;;;;;315.85;301.17;;;16.70;99.90;;;;;;4988576;28;20297;-73
2022/06/16 04:08:07;;;;;;;373.27;356.52;;;16.80;99.90;;;;;;5030336;28;20178;-73
2022/06/16 04:10:36;;;;;;;342.58;326.80;;;16.80;99.90;;;;;;4988776;28;20176;-73
2022/06/16 04:13:02;;;;;;;431.45;410.63;;;16.90;99.90;;;;;;5020850;28;20528;-73
2022/06/16 04:15:29;;;;;;;393.20;375.30;;;16.90;99.90;;;;;;4992294;28;20277;-73
2022/06/16 04:17:54;;;;;;;305.05;291.55;;;16.80;99.90;;;;;;5017675;28;20607;-73
2022/06/16 04:20:21;;;;;;;289.85;276.77;;;16.80;99.90;;;;;;5017943;28;20183;-73
2022/06/16 04:22:50;;;;;;;417.15;395.95;;;16.90;99.90;;;;;;5000434;28;20195;-73
2022/06/16 04:25:18;;;;;;;322.63;308.25;;;17.00;99.90;;;;;;5018569;28;20206;-72
2022/06/16 04:27:44;;;;;;;364.98;348.20;;;17.20;99.90;;;;;;5011962;28;20183;-73
2022/06/16 04:30:10;;;;;;;474.92;450.63;;;17.30;99.90;;;;;;4996406;28;20241;-73
2022/06/16 04:32:36;;;;;;;458.13;436.25;;;17.10;99.90;;;;;;5005831;28;20191;-73
2022/06/16 04:35:03;;;;;;;413.80;394.73;;;16.90;99.90;;;;;;5018480;28;20183;-72
2022/06/16 04:37:28;;;;;;;512.47;485.33;;;16.80;99.90;;;;;;4998929;28;20226;-73
2022/06/16 04:39:54;;;;;;;434.13;413.30;;;16.60;99.90;;;;;;5014605;28;20681;-72
2022/06/16 04:42:20;;;;;;;382.67;365.65;;;16.60;99.90;;;;;;4987965;28;20572;-73
2022/06/16 04:44:46;;;;;;;398.05;379.80;;;16.60;99.90;;;;;;5014758;28;20184;-76
2022/06/16 04:47:11;;;;;;;400.70;382.02;;;16.50;99.90;;;;;;5010247;28;20184;-73
2022/06/16 04:49:37;;;;;;;462.73;440.45;;;16.40;99.90;;;;;;4991695;28;20234;-73
2022/06/16 04:52:05;;;;;;;392.30;373.65;;;16.50;99.90;;;;;;4997050;28;20712;-74
2022/06/16 04:54:31;;;;;;;401.67;383.48;;;16.70;99.90;;;;;;4986777;28;20591;-73
2022/06/16 04:56:57;;;;;;;434.77;413.98;;;16.80;99.90;;;;;;4997184;28;20636;-73
2022/06/16 04:59:22;;;;;;;446.05;425.25;;;16.80;99.90;;;;;;5006652;28;20270;-73
2022/06/16 05:01:48;;;;;;;346.30;331.05;;;16.60;99.90;;;;;;4997331;28;20179;-73
2022/06/16 05:04:14;;;;;;;373.50;356.77;;;16.50;99.90;;;;;;4993592;28;20664;-73
2022/06/16 05:06:40;;;;;;;342.67;327.55;;;16.60;99.90;;;;;;4993808;28;20203;-73
2022/06/16 05:09:05;;;;;;;358.70;343.00;;;16.80;99.90;;;;;;5007145;28;20642;-74
2022/06/16 05:11:31;;;;;;;374.25;357.33;;;16.90;99.90;;;;;;4992529;28;20286;-73
2022/06/16 05:14:00;;;;;;;332.25;317.90;;;16.90;99.90;;;;;;4992576;28;20185;-73
2022/06/16 05:16:27;;;;;;;396.48;376.98;;;17.00;99.90;;;;;;4984546;28;20188;-73
2022/06/16 05:18:55;;;;;;;392.38;373.80;;;17.20;99.90;;;;;;5014080;28;20290;-73
2022/06/16 05:21:20;;;;;;;489.10;465.45;;;17.30;99.90;;;;;;4996531;28;20202;-73
2022/06/16 05:23:46;;;;;;;475.15;453.38;;;17.40;99.90;;;;;;4994769;28;20672;-73
2022/06/16 05:26:12;;;;;;;500.70;475.55;;;17.40;99.90;;;;;;4977923;28;20191;-73
2022/06/16 05:28:38;;;;;;;553.72;526.60;;;17.50;99.90;;;;;;4985433;28;20253;-73
2022/06/16 05:31:04;;;;;;;631.22;597.40;;;17.40;99.90;;;;;;4981421;28;20211;-72
2022/06/16 05:33:29;;;;;;;633.25;599.47;;;17.40;99.90;;;;;;4985623;28;20191;-74
2022/06/16 05:36:04;;;;;;;615.80;583.38;;;17.40;99.90;;;;;;5014030;28;20191;-74
2022/06/16 05:38:30;;;;;;;563.83;536.38;;;17.40;99.90;;;;;;5012406;28;20647;-73
2022/06/16 05:40:57;;;;;;;593.13;562.58;;;17.50;99.90;;;;;;5005101;28;20222;-73
2022/06/16 05:43:22;;;;;;;596.65;564.97;;;17.60;99.90;;;;;;5013310;28;20195;-72
2022/06/16 05:45:48;;;;;;;668.33;633.08;;;17.50;99.90;;;;;;5014069;28;20694;-74
2022/06/16 05:48:14;;;;;;;685.63;647.92;;;17.50;99.90;;;;;;4994611;28;20202;-72
2022/06/16 05:50:39;;;;;;;693.35;654.67;;;17.60;99.90;;;;;;4997072;28;20186;-73
2022/06/16 05:53:05;;;;;;;702.30;663.35;;;17.60;99.90;;;;;;5022522;28;20265;-73
2022/06/16 05:55:31;;;;;;;679.47;642.35;;;17.60;99.90;;;;;;5021763;28;20179;-73
2022/06/16 05:57:57;;;;;;;702.15;663.55;;;17.70;99.90;;;;;;5026818;28;20193;-73
2022/06/16 06:00:22;;;;;;;736.33;695.00;;;17.90;99.90;;;;;;5001849;28;20703;-73
2022/06/16 06:02:53;;;;;;;734.60;692.50;;;17.90;99.90;;;;;;4998994;28;20653;-73
2022/06/16 06:05:19;;;;;;;668.80;633.38;;;18.00;99.90;;;;;;5006367;28;20206;-73
2022/06/16 06:18:46;;;;;;;846.22;793.75;;;18.70;99.90;;;;;;5007231;28;20226;-73
2022/06/16 06:21:12;;;;;;;842.22;790.67;;;18.60;99.90;;;;;;4993894;28;20195;-73
2022/06/16 06:23:38;;;;;;;888.05;831.95;;;18.60;99.90;;;;;;5019951;28;20191;-73
2022/06/16 06:26:03;;;;;;;880.78;825.50;;;18.80;99.90;;;;;;5018068;28;20663;-73
2022/06/16 06:28:29;;;;;;;915.70;856.90;;;18.60;99.90;;;;;;4995355;28;20290;-73
2022/06/16 06:30:54;;;;;;;905.00;847.35;;;18.70;99.90;;;;;;4977373;28;20176;-73
2022/06/16 06:33:20;;;;;;;921.90;862.90;;;18.90;99.90;;;;;;4994843;28;20222;-72
2022/06/16 06:35:46;;;;;;;918.65;859.13;;;19.10;99.90;;;;;;4978924;28;20261;-73
2022/06/16 06:38:13;;;;;;;915.63;857.25;;;19.20;99.90;;;;;;5011488;28;20697;-73
2022/06/16 06:40:39;;;;;;;916.78;857.05;;;19.40;99.90;;;;;;5012590;28;20199;-73
2022/06/16 06:43:06;;;;;;;981.22;915.20;;;20.60;99.90;;;;;;5012120;28;20190;-73
2022/06/16 06:45:32;;;;;;;783.70;733.08;;;22.40;99.90;;;;;;5012836;28;20187;-71
2022/06/16 06:47:58;;;;;;;1999.90;999.90;;;24.80;99.90;;;;;;5012040;28;20195;-73
2022/06/16 06:50:28;;;;;;;1999.90;999.90;;;26.20;99.90;;;;;;4995720;28;20547;-73
2022/06/16 06:52:56;;;;;;;1999.90;999.90;;;27.50;99.90;;;;;;5016969;28;20194;-76
2022/06/16 06:55:23;;;;;;;1999.90;999.90;;;28.80;99.90;;;;;;4993616;28;20639;-73
2022/06/16 06:57:51;;;;;;;1999.90;999.90;;;29.80;99.90;;;;;;5010071;28;20294;-77
2022/06/16 07:00:17;;;;;;;1999.90;999.90;;;30.40;99.90;;;;;;5002772;28;20257;-75
2022/06/16 07:02:43;;;;;;;1999.90;999.90;;;30.90;99.90;;;;;;4989542;28;20194;-75
2022/06/16 07:05:13;;;;;;;1999.90;999.90;;;30.60;99.90;;;;;;5023319;28;20195;-75
2022/06/16 07:07:39;;;;;;;1999.90;999.90;;;31.20;99.90;;;;;;5021920;28;20186;-76
2022/06/16 07:10:08;;;;;;;1999.90;999.90;;;31.70;99.90;;;;;;5025889;28;20190;-75
2022/06/16 07:12:34;;;;;;;1999.90;999.90;;;30.70;99.90;;;;;;5022961;28;20321;-75
2022/06/16 07:15:00;;;;;;;1999.90;999.90;;;30.70;99.90;;;;;;4993769;28;20242;-75
2022/06/16 07:17:26;;;;;;;1999.90;999.90;;;30.50;99.90;;;;;;4977863;28;20257;-75
2022/06/16 07:19:53;;;;;;;1999.90;999.90;;;30.30;99.90;;;;;;5007869;28;20679;-74
2022/06/16 07:22:19;;;;;;;1999.90;999.90;;;29.20;99.90;;;;;;4991049;28;20299;-74
2022/06/16 07:24:45;;;;;;;1999.90;999.90;;;29.10;99.90;;;;;;5003406;28;20183;-74
2022/06/16 07:27:11;;;;;;;1999.90;999.90;;;29.60;99.90;;;;;;4992363;28;20333;-75
2022/06/16 07:29:37;;;;;;;1999.90;999.90;;;30.30;99.90;;;;;;5006605;28;20175;-75
2022/06/16 07:32:04;;;;;;;1999.90;999.90;;;30.40;99.90;;;;;;4995181;28;20193;-74
2022/06/16 07:34:30;;;;;;;1999.90;999.90;;;30.90;99.90;;;;;;5008638;28;20571;-74
2022/06/16 07:36:56;;;;;;;1999.90;999.90;;;30.80;99.90;;;;;;5010774;28;20179;-75
2022/06/16 07:39:22;;;;;;;1999.90;999.90;;;31.70;99.90;;;;;;4988686;28;20214;-74
2022/06/16 07:41:48;;;;;;;1999.90;999.90;;;31.00;99.90;;;;;;4995802;28;20685;-74
2022/06/16 07:44:16;;;;;;;1999.90;999.90;;;30.70;99.90;;;;;;5006429;28;20215;-75
2022/06/16 07:46:43;;;;;;;1999.90;999.90;;;30.50;99.90;;;;;;5009121;28;20257;-74
2022/06/16 07:49:14;;;;;;;1999.90;999.90;;;29.80;99.90;;;;;;4991296;28;20205;-74
2022/06/16 07:51:42;;;;;;;1999.90;999.90;;;30.20;99.90;;;;;;5010678;28;20194;-74
2022/06/16 07:54:08;;;;;;;1999.90;999.90;;;31.20;99.90;;;;;;5010040;28;20190;-74
2022/06/16 07:56:33;;;;;;;1999.90;999.90;;;31.30;99.90;;;;;;4986558;28;20187;-74
2022/06/16 07:58:59;;;;;;;1999.90;999.90;;;31.70;99.90;;;;;;4986597;28;20268;-73
2022/06/16 08:01:25;;;;;;;1999.90;999.90;;;31.50;99.90;;;;;;4981446;28;20564;-74
2022/06/16 08:03:50;;;;;;;1999.90;999.90;;;32.30;99.90;;;;;;5010936;28;20686;-74
2022/06/16 08:06:23;;;;;;;1999.90;999.90;;;33.20;99.90;;;;;;5009127;28;20202;-73
2022/06/16 08:08:48;;;;;;;1999.90;999.90;;;34.10;99.90;;;;;;5008465;28;20187;-74
2022/06/16 08:13:59;;;;;;;1999.90;999.90;;;34.30;99.90;;;;;;4998609;28;20201;-75
2022/06/16 08:16:25;;;;;;;1999.90;999.90;;;34.70;99.90;;;;;;5011824;28;20193;-75
2022/06/16 08:18:51;;;;;;;1999.90;999.90;;;34.90;99.90;;;;;;5014744;28;20214;-75
2022/06/16 08:21:17;;;;;;;1999.90;999.90;;;33.30;99.90;;;;;;5012319;28;20197;-75
2022/06/16 08:23:43;;;;;;;1999.90;999.90;;;31.70;99.90;;;;;;4995748;28;20201;-77
2022/06/16 08:26:10;;;;;;;1999.90;999.90;;;31.40;99.90;;;;;;5015801;28;20189;-76
2022/06/16 08:28:38;;;;;;;1999.90;999.90;;;31.70;99.90;;;;;;5014094;28;20214;-75
2022/06/16 08:31:05;;;;;;;1999.90;999.90;;;31.40;99.90;;;;;;4979029;28;20187;-76
2022/06/16 08:33:30;;;;;;;1999.90;999.90;;;30.80;99.90;;;;;;4994246;28;20273;-76
2022/06/16 08:35:56;;;;;;;1999.90;999.90;;;30.50;99.90;;;;;;4980215;28;20333;-75
2022/06/16 08:38:22;;;;;;;1999.90;999.90;;;30.50;99.90;;;;;;5014538;28;20205;-75
2022/06/16 08:41:11;;;;;;;1999.90;999.90;;;30.70;99.90;;;;;;5023408;28;20225;-76
2022/06/16 08:43:44;;;;;;;1999.90;999.90;;;29.20;99.90;;;;;;5022471;28;20671;-74
2022/06/16 08:46:14;;;;;;;1999.90;999.90;;;28.90;99.90;;;;;;5013984;28;20232;-72
2022/06/16 08:49:28;;;;;;;1999.90;999.90;;;29.10;99.90;;;;;;5010457;28;20277;-72
2022/06/16 08:52:16;;;;;;;1999.90;999.90;;;30.20;99.90;;;;;;5023661;28;20740;-71
2022/06/16 08:54:50;;;;;;;1999.90;999.90;;;30.40;99.90;;;;;;5008192;28;20174;-73
2022/06/16 08:57:25;;;;;;;1999.90;999.90;;;30.90;99.90;;;;;;5005407;28;20674;-68
2022/06/16 08:59:59;;;;;;;1999.90;999.90;;;30.40;99.90;;;;;;5023202;28;20206;-72
2022/06/16 09:02:49;;;;;;;1999.90;999.90;;;29.60;99.90;;;;;;5014939;28;20201;-76
2022/06/16 09:05:37;;;;;;;1999.90;999.90;;;30.10;99.90;;;;;;5012065;28;20182;-75
2022/06/16 09:08:09;;;;;;;1999.90;999.90;;;30.20;99.90;;;;;;5013329;28;20183;-73
2022/06/16 09:11:02;;;;;;;1999.90;999.90;;;29.50;99.90;;;;;;4988458;28;20551;-75
2022/06/16 09:13:43;;;;;;;1999.90;999.90;;;29.10;99.90;;;;;;5004553;28;20197;-74
2022/06/16 09:16:28;;;;;;;1999.90;999.90;;;28.70;99.90;;;;;;4996377;28;20190;-74
2022/06/16 09:19:29;;;;;;;1999.90;999.90;;;28.90;99.90;;;;;;5005045;28;20205;-74
2022/06/16 09:22:22;;;;;;;1999.90;999.90;;;29.00;99.90;;;;;;4981318;28;20201;-74
2022/06/16 09:24:57;;;;;;;1999.90;999.90;;;30.10;99.90;;;;;;5004497;28;20177;-74
2022/06/16 09:27:28;;;;;;;1999.90;999.90;;;31.10;99.90;;;;;;4993640;28;20183;-73
2022/06/16 09:30:08;;;;;;;1999.90;999.90;;;30.80;99.90;;;;;;5012850;28;20711;-74
2022/06/16 09:32:48;;;;;;;1999.90;999.90;;;31.60;99.90;;;;;;4993384;28;20773;-73
2022/06/16 09:35:21;;;;;;;1999.90;999.90;;;32.10;99.90;;;;;;5011142;28;20183;-78
2022/06/16 09:37:57;;;;;;;1999.90;999.90;;;31.70;99.90;;;;;;5005985;28;20183;-73
2022/06/16 09:40:26;;;;;;;1999.90;999.90;;;29.90;99.90;;;;;;5014657;28;20216;-73
2022/06/16 09:43:14;;;;;;;1999.90;999.90;;;28.70;99.90;;;;;;5011572;28;20182;-74
2022/06/16 09:45:43;;;;;;;1999.90;999.90;;;27.30;99.90;;;;;;5000460;28;20186;-74
2022/06/16 09:48:20;;;;;;;1999.90;999.90;;;26.10;99.90;;;;;;4990273;28;20184;-74
2022/06/16 09:51:01;;;;;;;1999.90;999.90;;;25.30;99.90;;;;;;5011203;28;20670;-74
2022/06/16 09:53:39;;;;;;;1999.90;999.90;;;25.50;99.90;;;;;;4995101;28;20210;-74
2022/06/16 09:56:17;;;;;;;1999.90;999.90;;;25.50;99.90;;;;;;5015772;28;20183;-74
2022/06/16 09:58:54;;;;;;;1999.90;999.90;;;24.90;99.90;;;;;;4998701;28;20204;-73
2022/06/16 10:01:23;;;;;;;1999.90;999.90;;;24.30;99.90;;;;;;5017695;28;21993;-73
2022/06/16 10:04:06;;;;;;;1999.90;999.90;;;24.20;99.90;;;;;;5009697;28;20180;-72
2022/06/16 10:07:09;;;;;;;1999.90;999.90;;;24.10;99.90;;;;;;5011116;28;20179;-72
2022/06/16 10:09:55;;;;;;;1999.90;999.90;;;24.10;99.90;;;;;;5004804;28;20179;-71
2022/06/16 10:12:27;;;;;;;1999.90;999.90;;;24.20;99.90;;;;;;5023088;28;20266;-71
2022/06/16 10:15:09;;;;;;;1999.90;999.90;;;24.20;99.90;;;;;;5011501;28;20186;-73
2022/06/16 10:17:36;;;;;;;1999.90;999.90;;;24.10;99.90;;;;;;5011636;28;20187;-72
2022/06/16 10:20:03;;;;;;;1999.90;999.90;;;24.00;99.90;;;;;;4995184;28;20199;-71
2022/06/16 10:22:32;;;;;;;1999.90;999.90;;;24.10;99.90;;;;;;4995819;28;20219;-71
2022/06/16 10:25:25;;;;;;;1999.90;999.90;;;24.20;99.90;;;;;;5016369;28;20674;-72
2022/06/16 10:28:03;;;;;;;1999.90;999.90;;;24.30;99.90;;;;;;5005857;28;20727;-74
2022/06/16 10:30:37;;;;;;;1999.90;999.90;;;24.30;99.90;;;;;;5011965;28;20191;-72
2022/06/16 10:33:06;;;;;;;1999.90;999.90;;;23.90;99.90;;;;;;5010474;28;20546;-72
2022/06/16 10:35:32;;;;;;;1999.90;999.90;;;24.10;99.90;;;;;;5011012;28;20238;-73
2022/06/16 10:37:58;;;;;;;1999.90;999.90;;;24.10;99.90;;;;;;4998042;28;20577;-71
2022/06/16 10:40:29;;;;;;;1999.90;999.90;;;24.40;99.90;;;;;;4984295;28;20220;-72
2022/06/16 10:43:05;;;;;;;1999.90;999.90;;;24.80;99.90;;;;;;4996602;28;20191;-72
2022/06/16 10:45:34;;;;;;;1999.90;999.90;;;25.00;99.90;;;;;;5014372;28;20178;-77
2022/06/16 10:48:03;;;;;;;1999.90;999.90;;;25.20;99.90;;;;;;5011627;28;20579;-76
2022/06/16 10:50:34;;;;;;;1999.90;999.90;;;25.30;99.90;;;;;;5016847;28;20187;-77
2022/06/16 10:53:22;;;;;;;1999.90;999.90;;;25.30;99.90;;;;;;5012531;28;20330;-77
2022/06/16 10:55:49;;;;;;;1999.90;999.90;;;24.80;99.90;;;;;;4998239;28;20191;-77
2022/06/16 10:58:49;;;;;;;1999.90;999.90;;;24.60;99.90;;;;;;5017971;28;20190;-77
2022/06/16 11:01:35;;;;;;;1999.90;999.90;;;24.60;99.90;;;;;;5016228;28;20184;-74
2022/06/16 11:04:11;;;;;;;1999.90;999.90;;;24.50;99.90;;;;;;5014859;28;20306;-76
2022/06/16 11:06:44;;;;;;;1999.90;999.90;;;24.70;99.90;;;;;;4997962;28;20184;-71
2022/06/16 11:09:09;;;;;;;1999.90;999.90;;;24.70;99.90;;;;;;5015513;28;20245;-70
2022/06/16 11:12:19;;;;;;;1999.90;999.90;;;24.80;99.90;;;;;;5020379;28;20187;-69
2022/06/16 11:15:01;;;;;;;1999.90;999.90;;;24.90;99.90;;;;;;4958705;28;20218;-69
2022/06/16 11:17:50;;;;;;;1999.90;999.90;;;24.90;99.90;;;;;;5012822;28;20179;-70
2022/06/16 11:20:34;;;;;;;1999.90;999.90;;;24.90;99.90;;;;;;4991132;28;20258;-71
2022/06/16 11:23:06;;;;;;;1999.90;999.90;;;25.10;99.90;;;;;;5005433;28;20600;-72
2022/06/16 11:25:37;;;;;;;1999.90;999.90;;;25.10;99.90;;;;;;5008718;28;20182;-71
2022/06/16 11:28:10;;;;;;;1999.90;999.90;;;24.90;99.90;;;;;;5015103;28;20190;-73
2022/06/16 11:30:40;;;;;;;1999.90;999.90;;;24.60;99.90;;;;;;5022054;28;20179;-72
2022/06/16 11:36:46;;;;;;;1999.90;999.90;;;24.40;99.90;;;;;;5011032;28;20190;-72
2022/06/16 11:39:33;;;;;;;1999.90;999.90;;;24.40;99.90;;;;;;4991542;28;20207;-74
2022/06/16 11:42:00;;;;;;;1999.90;999.90;;;24.50;99.90;;;;;;5018472;28;20195;-71
2022/06/16 11:44:31;;;;;;;1999.90;999.90;;;24.60;99.90;;;;;;5000945;28;20213;-66
2022/06/16 11:47:31;;;;;;;1999.90;999.90;;;24.80;99.90;;;;;;5029375;28;20584;-66
2022/06/16 11:50:38;;;;;;;1999.90;999.90;;;24.70;99.90;;;;;;4993531;28;20183;-67
2022/06/16 11:53:27;;;;;;;1999.90;999.90;;;24.90;99.90;;;;;;5008020;28;20672;-77
2022/06/16 11:56:06;;;;;;;1999.90;999.90;;;24.80;99.90;;;;;;5000692;28;20179;-75
2022/06/16 11:58:47;;;;;;;1999.90;999.90;;;24.60;99.90;;;;;;5024593;28;20199;-78
2022/06/16 12:01:41;;;;;;;1999.90;999.90;;;24.40;99.90;;;;;;5019043;28;20198;-76
2022/06/16 12:04:29;;;;;;;1999.90;999.90;;;24.50;99.90;;;;;;5004482;28;20180;-77
2022/06/16 12:07:30;;;;;;;1999.90;999.90;;;24.40;99.90;;;;;;5017004;28;20544;-76
2022/06/16 12:10:17;;;;;;;1999.90;999.90;;;24.40;99.90;;;;;;5004346;28;20202;-74
2022/06/16 12:12:46;;;;;;;1999.90;999.90;;;24.60;99.90;;;;;;5023199;28;20183;-76
2022/06/16 12:15:30;;;;;;;1999.90;999.90;;;24.70;99.90;;;;;;4999527;28;20188;-74
2022/06/16 12:18:18;;;;;;;1999.90;999.90;;;24.80;99.90;;;;;;5012212;28;20183;-68
2022/06/16 12:21:13;;;;;;;1999.90;999.90;;;24.90;99.90;;;;;;5021143;28;20203;-72
2022/06/16 12:23:51;;;;;;;1999.90;999.90;;;25.00;99.90;;;;;;5017688;28;20179;-76
2022/06/16 12:26:31;;;;;;;1999.90;999.90;;;25.10;99.90;;;;;;5012856;28;20183;-76
2022/06/16 12:29:18;;;;;;;1999.90;999.90;;;25.20;99.90;;;;;;5013135;28;20703;-71
2022/06/16 12:32:20;;;;;;;1999.90;999.90;;;25.10;99.90;;;;;;5013969;28;20651;-74
2022/06/16 12:35:09;;;;;;;1999.90;999.90;;;25.30;99.90;;;;;;5014585;28;20644;-71
2022/06/16 12:37:41;;;;;;;1999.90;999.90;;;25.40;99.90;;;;;;4994674;28;20190;-71
2022/06/16 12:40:18;;;;;;;1999.90;999.90;;;25.50;99.90;;;;;;5025762;28;20210;-74
2022/06/16 12:42:51;;;;;;;1999.90;999.90;;;25.60;99.90;;;;;;5015464;28;20385;-73
2022/06/16 12:45:21;;;;;;;1999.90;999.90;;;25.70;99.90;;;;;;5032464;28;20183;-73
2022/06/16 12:47:59;;;;;;;1999.90;999.90;;;25.80;99.90;;;;;;5029655;28;20189;-72
2022/06/16 12:50:39;;;;;;;1999.90;999.90;;;25.90;99.90;;;;;;5012430;28;20538;-72
2022/06/16 12:53:17;;;;;;;1999.90;999.90;;;25.80;99.90;;;;;;5029465;28;20750;-73
2022/06/16 12:55:53;;;;;;;1999.90;999.90;;;25.90;99.90;;;;;;5027168;28;20186;-72
2022/06/16 12:58:30;;;;;;;1999.90;999.90;;;25.70;99.90;;;;;;5002110;28;20544;-73